sensor_id;sensor_type;location;lat;lon;timestamp;pressure;altitude;pressure_sealevel;temperature;humidity
26697;BME280;14312;52.614;13.496;2023-03-15T00:00:09;100039.13;;;4.90;71.17
26697;BME280;14312;52.614;13.496;2023-03-15T00:02:57;100046.47;;;4.88;71.32
26697;BME280;14312;52.614;13.496;2023-03-15T00:05:44;100048.09;;;4.89;71.22
26697;BME280;14312;52.614;13.496;2023-03-15T00:08:30;100054.38;;;4.88;71.11
26697;BME280;14312;52.614;13.496;2023-03-15T00:11:18;100060.69;;;4.87;70.95
26697;BME280;14312;52.614;13.496;2023-03-15T00:14:04;100063.34;;;4.87;70.85
26697;BME280;14312;52.614;13.496;2023-03-15T00:16:50;100074.91;;;4.86;70.80
26697;BME280;14312;52.614;13.496;2023-03-15T00:19:36;100081.19;;;4.85;70.71
26697;BME280;14312;52.614;13.496;2023-03-15T00:22:22;100069.63;;;4.86;70.82
26697;BME280;14312;52.614;13.496;2023-03-15T00:25:09;100073.28;;;4.85;70.58
26697;BME280;14312;52.614;13.496;2023-03-15T00:27:54;100082.81;;;4.86;70.64
26697;BME280;14312;52.614;13.496;2023-03-15T00:30:41;100091.16;;;4.83;70.70
26697;BME280;14312;52.614;13.496;2023-03-15T00:33:27;100092.78;;;4.84;70.48
26697;BME280;14312;52.614;13.496;2023-03-15T00:36:13;100103.34;;;4.84;70.52
26697;BME280;14312;52.614;13.496;2023-03-15T00:38:59;100108.63;;;4.84;70.71
26697;BME280;14312;52.614;13.496;2023-03-15T00:41:45;100117.56;;;4.83;70.36
26697;BME280;14312;52.614;13.496;2023-03-15T00:44:31;100115.16;;;4.82;70.40
26697;BME280;14312;52.614;13.496;2023-03-15T00:47:17;100110.69;;;4.82;70.40
26697;BME280;14312;52.614;13.496;2023-03-15T00:50:03;100119.63;;;4.81;70.45
26697;BME280;14312;52.614;13.496;2023-03-15T00:52:49;100124.91;;;4.81;70.21
26697;BME280;14312;52.614;13.496;2023-03-15T00:55:35;100130.59;;;4.78;70.13
26697;BME280;14312;52.614;13.496;2023-03-15T00:58:21;100131.63;;;4.77;70.13
26697;BME280;14312;52.614;13.496;2023-03-15T01:01:10;100129.78;;;4.78;70.11
26697;BME280;14312;52.614;13.496;2023-03-15T01:03:56;100138.72;;;4.77;70.18
26697;BME280;14312;52.614;13.496;2023-03-15T01:06:42;100139.53;;;4.77;70.15
26697;BME280;14312;52.614;13.496;2023-03-15T01:09:29;100139.78;;;4.76;70.19
26697;BME280;14312;52.614;13.496;2023-03-15T01:12:16;100152.16;;;4.75;70.25
26697;BME280;14312;52.614;13.496;2023-03-15T01:15:03;100153.97;;;4.75;69.94
26697;BME280;14312;52.614;13.496;2023-03-15T01:17:50;100143.63;;;4.73;70.04
26697;BME280;14312;52.614;13.496;2023-03-15T01:20:36;100154.41;;;4.71;70.22
26697;BME280;14312;52.614;13.496;2023-03-15T01:23:22;100159.88;;;4.70;69.93
26697;BME280;14312;52.614;13.496;2023-03-15T01:26:13;100166.41;;;4.67;69.96
26697;BME280;14312;52.614;13.496;2023-03-15T01:28:59;100169.84;;;4.68;69.84
26697;BME280;14312;52.614;13.496;2023-03-15T01:31:45;100175.56;;;4.65;69.91
26697;BME280;14312;52.614;13.496;2023-03-15T01:34:31;100167.63;;;4.65;69.76
26697;BME280;14312;52.614;13.496;2023-03-15T01:37:17;100178.59;;;4.62;69.83
26697;BME280;14312;52.614;13.496;2023-03-15T01:40:03;100183.09;;;4.61;70.17
26697;BME280;14312;52.614;13.496;2023-03-15T01:48:59;100195.88;;;4.58;69.57
26697;BME280;14312;52.614;13.496;2023-03-15T01:51:52;100191.63;;;4.57;69.90
26697;BME280;14312;52.614;13.496;2023-03-15T01:54:45;100197.34;;;4.54;69.65
26697;BME280;14312;52.614;13.496;2023-03-15T01:57:37;100188.81;;;4.52;69.92
26697;BME280;14312;52.614;13.496;2023-03-15T02:00:26;100203.03;;;4.51;69.81
26697;BME280;14312;52.614;13.496;2023-03-15T02:03:18;100210.34;;;4.49;69.67
26697;BME280;14312;52.614;13.496;2023-03-15T02:06:08;100205.06;;;4.49;69.65
26697;BME280;14312;52.614;13.496;2023-03-15T02:08:58;100198.97;;;4.48;69.75
26697;BME280;14312;52.614;13.496;2023-03-15T02:11:46;100201.03;;;4.46;69.89
26697;BME280;14312;52.614;13.496;2023-03-15T02:14:33;100203.88;;;4.45;69.63
26697;BME280;14312;52.614;13.496;2023-03-15T02:17:23;100205.91;;;4.43;69.67
26697;BME280;14312;52.614;13.496;2023-03-15T02:23:14;100209.19;;;4.38;69.69
26697;BME280;14312;52.614;13.496;2023-03-15T02:28:59;100209.22;;;4.31;69.53
26697;BME280;14312;52.614;13.496;2023-03-15T02:31:45;100218.13;;;4.30;69.67
26697;BME280;14312;52.614;13.496;2023-03-15T02:34:31;100227.06;;;4.29;69.73
26697;BME280;14312;52.614;13.496;2023-03-15T02:37:17;100222.19;;;4.26;69.58
26697;BME280;14312;52.614;13.496;2023-03-15T02:40:16;100234.00;;;4.24;69.50
26697;BME280;14312;52.614;13.496;2023-03-15T02:43:08;100231.56;;;4.22;69.37
26697;BME280;14312;52.614;13.496;2023-03-15T02:45:56;100245.75;;;4.21;69.55
26697;BME280;14312;52.614;13.496;2023-03-15T02:48:44;100239.28;;;4.17;69.80
26697;BME280;14312;52.614;13.496;2023-03-15T02:51:32;100249.84;;;4.17;69.54
26697;BME280;14312;52.614;13.496;2023-03-15T02:54:18;100257.13;;;4.15;69.51
26697;BME280;14312;52.614;13.496;2023-03-15T02:57:04;100258.13;;;4.14;69.77
26697;BME280;14312;52.614;13.496;2023-03-15T02:59:50;100259.97;;;4.14;69.73
26697;BME280;14312;52.614;13.496;2023-03-15T03:02:36;100280.25;;;4.13;69.80
26697;BME280;14312;52.614;13.496;2023-03-15T03:05:22;100268.06;;;4.12;69.75
26697;BME280;14312;52.614;13.496;2023-03-15T03:08:08;100277.03;;;4.11;69.60
26697;BME280;14312;52.614;13.496;2023-03-15T03:10:54;100276.22;;;4.11;69.82
26697;BME280;14312;52.614;13.496;2023-03-15T03:13:40;100282.50;;;4.10;69.79
26697;BME280;14312;52.614;13.496;2023-03-15T03:16:26;100282.69;;;4.08;69.88
26697;BME280;14312;52.614;13.496;2023-03-15T03:19:12;100281.06;;;4.07;69.78
26697;BME280;14312;52.614;13.496;2023-03-15T03:21:58;100290.00;;;4.06;69.74
26697;BME280;14312;52.614;13.496;2023-03-15T03:24:44;100295.25;;;4.06;69.74
26697;BME280;14312;52.614;13.496;2023-03-15T03:27:30;100298.91;;;4.05;69.73
26697;BME280;14312;52.614;13.496;2023-03-15T03:30:16;100302.59;;;4.04;69.82
26697;BME280;14312;52.614;13.496;2023-03-15T03:33:03;100302.59;;;4.04;69.82
26697;BME280;14312;52.614;13.496;2023-03-15T03:35:49;100303.41;;;4.05;69.83
26697;BME280;14312;52.614;13.496;2023-03-15T03:38:35;100307.88;;;4.04;69.82
26697;BME280;14312;52.614;13.496;2023-03-15T03:41:21;100304.59;;;4.02;69.74
26697;BME280;14312;52.614;13.496;2023-03-15T03:44:07;100309.88;;;4.02;69.79
26697;BME280;14312;52.614;13.496;2023-03-15T03:46:53;100315.16;;;4.02;69.60
26697;BME280;14312;52.614;13.496;2023-03-15T03:49:39;100323.25;;;4.01;69.91
26697;BME280;14312;52.614;13.496;2023-03-15T03:52:25;100334.63;;;4.01;69.84
26697;BME280;14312;52.614;13.496;2023-03-15T03:55:11;100330.34;;;4.00;70.09
26697;BME280;14312;52.614;13.496;2023-03-15T03:58:00;100334.63;;;4.01;69.99
26697;BME280;14312;52.614;13.496;2023-03-15T04:00:45;100338.88;;;4.02;69.90
26697;BME280;14312;52.614;13.496;2023-03-15T04:03:31;100345.78;;;4.03;69.95
26697;BME280;14312;52.614;13.496;2023-03-15T04:06:17;100337.88;;;4.03;69.95
26697;BME280;14312;52.614;13.496;2023-03-15T04:09:03;100343.13;;;4.03;69.86
26697;BME280;14312;52.614;13.496;2023-03-15T04:11:49;100343.13;;;4.03;69.76
26697;BME280;14312;52.614;13.496;2023-03-15T04:14:35;100346.78;;;4.02;69.70
26697;BME280;14312;52.614;13.496;2023-03-15T04:17:21;100352.88;;;4.03;69.84
26697;BME280;14312;52.614;13.496;2023-03-15T04:20:08;100357.34;;;4.02;69.83
26697;BME280;14312;52.614;13.496;2023-03-15T04:22:56;100362.59;;;4.02;69.65
26697;BME280;14312;52.614;13.496;2023-03-15T04:25:42;100356.91;;;3.99;69.94
26697;BME280;14312;52.614;13.496;2023-03-15T04:28:28;100368.28;;;3.99;69.72
26697;BME280;14312;52.614;13.496;2023-03-15T04:31:15;100369.50;;;3.97;69.79
26697;BME280;14312;52.614;13.496;2023-03-15T04:34:01;100374.16;;;3.94;69.72
26697;BME280;14312;52.614;13.496;2023-03-15T04:36:47;100373.34;;;3.94;69.73
26697;BME280;14312;52.614;13.496;2023-03-15T04:39:32;100365.84;;;3.91;69.77
26697;BME280;14312;52.614;13.496;2023-03-15T04:42:19;100364.44;;;3.88;69.72
26697;BME280;14312;52.614;13.496;2023-03-15T04:45:05;100375.16;;;3.87;69.76
26697;BME280;14312;52.614;13.496;2023-03-15T04:47:52;100366.66;;;3.85;69.58
26697;BME280;14312;52.614;13.496;2023-03-15T04:50:38;100373.97;;;3.83;69.84
26697;BME280;14312;52.614;13.496;2023-03-15T04:53:24;100366.25;;;3.81;69.86
26697;BME280;14312;52.614;13.496;2023-03-15T04:56:10;100384.09;;;3.79;69.89
26697;BME280;14312;52.614;13.496;2023-03-15T04:58:56;100386.09;;;3.77;69.89
26697;BME280;14312;52.614;13.496;2023-03-15T05:01:41;100383.69;;;3.76;69.99
26697;BME280;14312;52.614;13.496;2023-03-15T05:04:27;100392.59;;;3.75;69.86
26697;BME280;14312;52.614;13.496;2023-03-15T05:07:13;100396.25;;;3.74;69.75
26697;BME280;14312;52.614;13.496;2023-03-15T05:10:00;100398.25;;;3.72;69.96
26697;BME280;14312;52.614;13.496;2023-03-15T05:12:46;100406.16;;;3.72;70.04
26697;BME280;14312;52.614;13.496;2023-03-15T05:15:32;100408.00;;;3.71;69.99
26697;BME280;14312;52.614;13.496;2023-03-15T05:18:18;100411.63;;;3.70;70.07
26697;BME280;14312;52.614;13.496;2023-03-15T05:21:04;100416.31;;;3.68;70.04
26697;BME280;14312;52.614;13.496;2023-03-15T05:23:50;100431.91;;;3.70;70.14
26697;BME280;14312;52.614;13.496;2023-03-15T05:26:36;100425.03;;;3.69;70.18
26697;BME280;14312;52.614;13.496;2023-03-15T05:29:22;100440.84;;;3.69;70.09
26697;BME280;14312;52.614;13.496;2023-03-15T05:32:08;100431.13;;;3.69;70.41
26697;BME280;14312;52.614;13.496;2023-03-15T05:34:55;100449.34;;;3.71;70.31
26697;BME280;14312;52.614;13.496;2023-03-15T05:37:41;100454.22;;;3.74;70.39
26697;BME280;14312;52.614;13.496;2023-03-15T05:40:27;100462.75;;;3.76;70.48
26697;BME280;14312;52.614;13.496;2023-03-15T05:43:14;100462.31;;;3.79;70.27
26697;BME280;14312;52.614;13.496;2023-03-15T05:46:00;100465.16;;;3.84;70.56
26697;BME280;14312;52.614;13.496;2023-03-15T05:48:47;100469.03;;;3.88;70.57
26697;BME280;14312;52.614;13.496;2023-03-15T05:51:33;100476.97;;;3.94;70.66
26697;BME280;14312;52.614;13.496;2023-03-15T05:54:19;100482.22;;;4.01;70.79
26697;BME280;14312;52.614;13.496;2023-03-15T05:57:04;100487.50;;;4.08;70.79
26697;BME280;14312;52.614;13.496;2023-03-15T05:59:50;100489.16;;;4.15;70.56
26697;BME280;14312;52.614;13.496;2023-03-15T06:02:36;100491.97;;;4.20;70.84
26697;BME280;14312;52.614;13.496;2023-03-15T06:05:22;100505.16;;;4.27;70.76
26697;BME280;14312;52.614;13.496;2023-03-15T06:08:08;100496.66;;;4.31;70.65
26697;BME280;14312;52.614;13.496;2023-03-15T06:10:54;100507.03;;;4.40;70.53
26697;BME280;14312;52.614;13.496;2023-03-15T06:13:40;100508.22;;;4.44;70.42
26697;BME280;14312;52.614;13.496;2023-03-15T06:16:26;100521.41;;;4.50;70.43
26697;BME280;14312;52.614;13.496;2023-03-15T06:19:12;100526.88;;;4.55;70.37
26697;BME280;14312;52.614;13.496;2023-03-15T06:21:58;100527.94;;;4.61;70.52
26697;BME280;14312;52.614;13.496;2023-03-15T06:24:44;100533.41;;;4.66;70.38
26697;BME280;14312;52.614;13.496;2023-03-15T06:27:30;100532.56;;;4.72;70.10
26697;BME280;14312;52.614;13.496;2023-03-15T06:30:16;100542.75;;;4.75;70.10
26697;BME280;14312;52.614;13.496;2023-03-15T06:33:02;100547.41;;;4.80;70.12
26697;BME280;14312;52.614;13.496;2023-03-15T06:35:48;100547.59;;;4.85;69.95
26697;BME280;14312;52.614;13.496;2023-03-15T06:38:34;100551.22;;;4.90;70.09
26697;BME280;14312;52.614;13.496;2023-03-15T06:41:20;100554.09;;;4.95;70.17
26697;BME280;14312;52.614;13.496;2023-03-15T06:44:07;100561.00;;;5.03;70.15
26697;BME280;14312;52.614;13.496;2023-03-15T06:46:53;100570.53;;;5.10;69.97
26697;BME280;14312;52.614;13.496;2023-03-15T06:49:39;100569.50;;;5.18;69.98
26697;BME280;14312;52.614;13.496;2023-03-15T06:52:25;100570.69;;;5.22;69.73
26697;BME280;14312;52.614;13.496;2023-03-15T06:55:11;100582.25;;;5.28;69.55
26697;BME280;14312;52.614;13.496;2023-03-15T06:58:01;100584.50;;;5.31;69.38
26697;BME280;14312;52.614;13.496;2023-03-15T07:00:48;100587.75;;;5.33;69.35
26697;BME280;14312;52.614;13.496;2023-03-15T07:03:35;100592.63;;;5.36;69.31
26697;BME280;14312;52.614;13.496;2023-03-15T07:06:21;100599.53;;;5.37;69.32
26697;BME280;14312;52.614;13.496;2023-03-15T07:09:07;100608.06;;;5.39;68.82
26697;BME280;14312;52.614;13.496;2023-03-15T07:11:53;100601.16;;;5.38;69.31
26697;BME280;14312;52.614;13.496;2023-03-15T07:14:39;100607.06;;;5.40;69.26
26697;BME280;14312;52.614;13.496;2023-03-15T07:17:25;100597.50;;;5.39;69.04
26697;BME280;14312;52.614;13.496;2023-03-15T07:20:11;100599.72;;;5.42;69.08
26697;BME280;14312;52.614;13.496;2023-03-15T07:22:57;100609.25;;;5.43;69.27
26697;BME280;14312;52.614;13.496;2023-03-15T07:25:43;100611.91;;;5.43;69.20
26697;BME280;14312;52.614;13.496;2023-03-15T07:28:29;100607.22;;;5.45;69.30
26697;BME280;14312;52.614;13.496;2023-03-15T07:31:15;100608.44;;;5.49;69.23
26697;BME280;14312;52.614;13.496;2023-03-15T07:34:02;100614.13;;;5.53;69.40
26697;BME280;14312;52.614;13.496;2023-03-15T07:36:48;100624.28;;;5.56;69.52
26697;BME280;14312;52.614;13.496;2023-03-15T07:39:34;100625.69;;;5.58;69.51
26697;BME280;14312;52.614;13.496;2023-03-15T07:42:20;100634.81;;;5.62;69.22
26697;BME280;14312;52.614;13.496;2023-03-15T07:45:07;100638.06;;;5.64;69.35
26697;BME280;14312;52.614;13.496;2023-03-15T07:47:53;100642.34;;;5.65;69.37
26697;BME280;14312;52.614;13.496;2023-03-15T07:50:40;100643.38;;;5.64;69.34
26697;BME280;14312;52.614;13.496;2023-03-15T07:53:26;100643.38;;;5.64;69.28
26697;BME280;14312;52.614;13.496;2023-03-15T07:56:12;100651.09;;;5.66;69.07
26697;BME280;14312;52.614;13.496;2023-03-15T07:58:58;100647.44;;;5.67;69.40
26697;BME280;14312;52.614;13.496;2023-03-15T08:01:43;100653.53;;;5.67;69.38
26697;BME280;14312;52.614;13.496;2023-03-15T08:04:30;100656.75;;;5.69;69.44
26697;BME280;14312;52.614;13.496;2023-03-15T08:07:16;100659.22;;;5.71;69.41
26697;BME280;14312;52.614;13.496;2023-03-15T08:10:03;100656.38;;;5.72;69.41
26697;BME280;14312;52.614;13.496;2023-03-15T08:12:51;100662.84;;;5.76;69.72
26697;BME280;14312;52.614;13.496;2023-03-15T08:15:37;100668.75;;;5.78;69.30
26697;BME280;14312;52.614;13.496;2023-03-15T08:18:23;100667.53;;;5.81;69.39
26697;BME280;14312;52.614;13.496;2023-03-15T08:21:09;100677.28;;;5.80;69.34
26697;BME280;14312;52.614;13.496;2023-03-15T08:23:55;100676.28;;;5.81;69.22
26697;BME280;14312;52.614;13.496;2023-03-15T08:26:41;100672.63;;;5.82;69.60
26697;BME280;14312;52.614;13.496;2023-03-15T08:29:31;100681.56;;;5.88;69.71
26697;BME280;14312;52.614;13.496;2023-03-15T08:32:17;100683.59;;;5.93;69.67
26697;BME280;14312;52.614;13.496;2023-03-15T08:35:04;100690.09;;;5.97;69.65
26697;BME280;14312;52.614;13.496;2023-03-15T08:37:50;100690.47;;;6.00;69.57
26697;BME280;14312;52.614;13.496;2023-03-15T08:40:37;100688.81;;;6.06;69.57
26697;BME280;14312;52.614;13.496;2023-03-15T08:43:23;100693.72;;;6.09;69.27
26697;BME280;14312;52.614;13.496;2023-03-15T08:46:09;100692.88;;;6.15;69.48
26697;BME280;14312;52.614;13.496;2023-03-15T08:48:55;100707.91;;;6.21;69.21
26697;BME280;14312;52.614;13.496;2023-03-15T08:51:41;100707.06;;;6.27;69.52
26697;BME280;14312;52.614;13.496;2023-03-15T08:54:27;100710.28;;;6.36;69.71
26697;BME280;14312;52.614;13.496;2023-03-15T08:57:13;100722.06;;;6.46;69.82
26697;BME280;14312;52.614;13.496;2023-03-15T09:00:03;100726.88;;;6.56;69.54
26697;BME280;14312;52.614;13.496;2023-03-15T09:03:02;100730.13;;;6.64;69.21
26697;BME280;14312;52.614;13.496;2023-03-15T09:05:49;100730.06;;;6.71;68.89
26697;BME280;14312;52.614;13.496;2023-03-15T09:08:34;100735.78;;;6.75;68.30
26697;BME280;14312;52.614;13.496;2023-03-15T09:11:21;100736.97;;;6.79;68.28
26697;BME280;14312;52.614;13.496;2023-03-15T09:14:07;100738.16;;;6.83;68.45
26697;BME280;14312;52.614;13.496;2023-03-15T09:16:53;100740.53;;;6.91;68.35
26697;BME280;14312;52.614;13.496;2023-03-15T09:19:39;100746.81;;;7.03;69.20
26697;BME280;14312;52.614;13.496;2023-03-15T09:22:25;100752.78;;;7.23;69.52
26697;BME280;14312;52.614;13.496;2023-03-15T09:25:11;100755.22;;;7.50;69.95
26697;BME280;14312;52.614;13.496;2023-03-15T09:27:57;100751.91;;;7.79;69.44
26697;BME280;14312;52.614;13.496;2023-03-15T09:30:43;100747.94;;;8.06;69.74
26697;BME280;14312;52.614;13.496;2023-03-15T09:33:29;100752.44;;;8.31;68.82
26697;BME280;14312;52.614;13.496;2023-03-15T09:36:17;100755.06;;;8.49;66.74
26697;BME280;14312;52.614;13.496;2023-03-15T09:39:03;100763.97;;;8.54;64.91
26697;BME280;14312;52.614;13.496;2023-03-15T09:41:52;100766.06;;;8.52;64.52
26697;BME280;14312;52.614;13.496;2023-03-15T09:44:46;100789.44;;;8.44;63.39
26697;BME280;14312;52.614;13.496;2023-03-15T09:48:09;100780.72;;;8.37;62.98
26697;BME280;14312;52.614;13.496;2023-03-15T09:51:01;100795.09;;;8.29;64.39
26697;BME280;14312;52.614;13.496;2023-03-15T09:53:54;100786.38;;;8.22;63.76
26697;BME280;14312;52.614;13.496;2023-03-15T09:59:51;100797.41;;;8.01;62.94
26697;BME280;14312;52.614;13.496;2023-03-15T10:02:43;100807.50;;;7.92;63.51
26697;BME280;14312;52.614;13.496;2023-03-15T10:05:37;100817.75;;;7.82;62.80
26697;BME280;14312;52.614;13.496;2023-03-15T10:08:25;100816.19;;;7.74;63.88
26697;BME280;14312;52.614;13.496;2023-03-15T10:11:24;100816.84;;;7.70;62.85
26697;BME280;14312;52.614;13.496;2023-03-15T10:14:24;100816.25;;;7.68;64.03
26697;BME280;14312;52.614;13.496;2023-03-15T10:17:14;100812.00;;;7.67;63.91
26697;BME280;14312;52.614;13.496;2023-03-15T10:20:10;100805.63;;;7.68;64.02
26697;BME280;14312;52.614;13.496;2023-03-15T10:26:05;100804.81;;;7.74;64.09
26697;BME280;14312;52.614;13.496;2023-03-15T10:28:52;100814.91;;;7.83;64.30
26697;BME280;14312;52.614;13.496;2023-03-15T10:31:40;100810.28;;;7.97;64.95
26697;BME280;14312;52.614;13.496;2023-03-15T10:34:26;100805.25;;;8.14;64.79
26697;BME280;14312;52.614;13.496;2023-03-15T10:37:12;100814.47;;;8.30;64.15
26697;BME280;14312;52.614;13.496;2023-03-15T10:39:58;100811.09;;;8.41;63.73
26697;BME280;14312;52.614;13.496;2023-03-15T10:42:45;100823.22;;;8.55;63.61
26697;BME280;14312;52.614;13.496;2023-03-15T10:45:31;100816.56;;;8.64;63.14
26697;BME280;14312;52.614;13.496;2023-03-15T10:48:18;100833.25;;;8.71;63.00
26697;BME280;14312;52.614;13.496;2023-03-15T10:51:14;100824.97;;;8.79;62.95
26697;BME280;14312;52.614;13.496;2023-03-15T10:54:15;100829.38;;;8.85;62.96
26697;BME280;14312;52.614;13.496;2023-03-15T10:57:12;100816.84;;;8.92;61.45
26697;BME280;14312;52.614;13.496;2023-03-15T11:00:03;100828.06;;;8.94;60.86
26697;BME280;14312;52.614;13.496;2023-03-15T11:03:02;100833.38;;;8.94;61.35
26697;BME280;14312;52.614;13.496;2023-03-15T11:05:51;100837.06;;;8.93;61.26
26697;BME280;14312;52.614;13.496;2023-03-15T11:08:40;100828.06;;;8.94;61.34
26697;BME280;14312;52.614;13.496;2023-03-15T11:11:26;100836.97;;;9.00;62.11
26697;BME280;14312;52.614;13.496;2023-03-15T11:14:12;100840.94;;;9.09;61.82
26697;BME280;14312;52.614;13.496;2023-03-15T11:17:03;100847.34;;;9.20;61.44
26697;BME280;14312;52.614;13.496;2023-03-15T11:19:55;100837.09;;;9.35;62.30
26697;BME280;14312;52.614;13.496;2023-03-15T11:22:42;100843.31;;;9.59;63.00
26697;BME280;14312;52.614;13.496;2023-03-15T11:25:30;100845.31;;;9.87;61.81
26697;BME280;14312;52.614;13.496;2023-03-15T11:28:22;100844.97;;;10.06;60.07
26697;BME280;14312;52.614;13.496;2023-03-15T11:31:10;100837.59;;;10.20;61.35
26697;BME280;14312;52.614;13.496;2023-03-15T11:34:49;100848.13;;;10.38;59.40
26697;BME280;14312;52.614;13.496;2023-03-15T11:37:30;100844.88;;;10.48;58.39
26697;BME280;14312;52.614;13.496;2023-03-15T11:40:21;100849.63;;;10.57;60.50
26697;BME280;14312;52.614;13.496;2023-03-15T11:43:21;100832.88;;;10.74;59.62
26697;BME280;14312;52.614;13.496;2023-03-15T11:46:20;100833.41;;;10.87;58.23
26697;BME280;14312;52.614;13.496;2023-03-15T11:52:02;100836.06;;;10.99;59.50
26697;BME280;14312;52.614;13.496;2023-03-15T11:54:49;100830.38;;;10.95;59.66
26697;BME280;14312;52.614;13.496;2023-03-15T11:57:42;100843.84;;;10.89;59.29
26697;BME280;14312;52.614;13.496;2023-03-15T12:15:40;100834.91;;;10.95;59.33
26697;BME280;14312;52.614;13.496;2023-03-15T12:18:24;100841.56;;;11.09;59.16
26697;BME280;14312;52.614;13.496;2023-03-15T12:21:14;100831.25;;;11.13;59.06
26697;BME280;14312;52.614;13.496;2023-03-15T12:24:03;100835.69;;;11.07;58.84
26697;BME280;14312;52.614;13.496;2023-03-15T12:27:02;100827.84;;;11.01;58.36
26697;BME280;14312;52.614;13.496;2023-03-15T12:29:58;100832.91;;;11.02;58.10
26697;BME280;14312;52.614;13.496;2023-03-15T12:32:49;100845.88;;;11.10;58.68
26697;BME280;14312;52.614;13.496;2023-03-15T12:35:39;100848.72;;;11.20;58.63
26697;BME280;14312;52.614;13.496;2023-03-15T12:38:34;100853.56;;;11.23;57.35
26697;BME280;14312;52.614;13.496;2023-03-15T12:41:38;100855.34;;;11.18;56.21
26697;BME280;14312;52.614;13.496;2023-03-15T12:47:16;100860.69;;;11.18;58.62
26697;BME280;14312;52.614;13.496;2023-03-15T12:56:30;100860.31;;;11.71;56.82
26697;BME280;14312;52.614;13.496;2023-03-15T13:02:29;100868.22;;;11.66;57.76
26697;BME280;14312;52.614;13.496;2023-03-15T13:05:25;100855.72;;;11.83;55.16
26697;BME280;14312;52.614;13.496;2023-03-15T13:17:12;100857.97;;;13.55;53.13
26697;BME280;14312;52.614;13.496;2023-03-15T13:26:07;100852.50;;;14.46;53.59
26697;BME280;14312;52.614;13.496;2023-03-15T13:29:09;100858.25;;;14.75;52.66
26697;BME280;14312;52.614;13.496;2023-03-15T13:32:16;100860.75;;;14.97;50.85
26697;BME280;14312;52.614;13.496;2023-03-15T13:35:10;100865.84;;;14.93;49.70
26697;BME280;14312;52.614;13.496;2023-03-15T13:41:29;100864.84;;;14.15;48.67
26697;BME280;14312;52.614;13.496;2023-03-15T13:44:19;100871.94;;;13.62;49.37
26697;BME280;14312;52.614;13.496;2023-03-15T13:47:05;100880.47;;;13.11;50.41
26697;BME280;14312;52.614;13.496;2023-03-15T13:49:51;100917.28;;;12.60;50.44
26697;BME280;14312;52.614;13.496;2023-03-15T13:52:39;100940.00;;;12.07;50.00
26697;BME280;14312;52.614;13.496;2023-03-15T13:55:30;100956.50;;;11.48;50.54
26697;BME280;14312;52.614;13.496;2023-03-15T13:58:17;100955.72;;;10.84;51.62
26697;BME280;14312;52.614;13.496;2023-03-15T14:01:07;100953.75;;;10.33;53.10
26697;BME280;14312;52.614;13.496;2023-03-15T14:04:19;100940.94;;;10.11;55.10
26697;BME280;14312;52.614;13.496;2023-03-15T14:07:31;100941.00;;;10.35;56.81
26697;BME280;14312;52.614;13.496;2023-03-15T14:13:27;100930.84;;;11.47;57.43
26697;BME280;14312;52.614;13.496;2023-03-15T14:16:16;100925.66;;;12.13;59.28
26697;BME280;14312;52.614;13.496;2023-03-15T14:19:15;100919.22;;;12.86;57.66
26697;BME280;14312;52.614;13.496;2023-03-15T14:22:12;100922.06;;;13.40;56.94
26697;BME280;14312;52.614;13.496;2023-03-15T14:25:00;100918.22;;;13.85;56.36
26697;BME280;14312;52.614;13.496;2023-03-15T14:27:48;100910.47;;;14.20;55.37
26697;BME280;14312;52.614;13.496;2023-03-15T14:30:35;100914.97;;;14.46;54.50
26697;BME280;14312;52.614;13.496;2023-03-15T14:33:36;100914.59;;;14.70;52.08
26697;BME280;14312;52.614;13.496;2023-03-15T14:36:29;100899.63;;;14.89;53.25
26697;BME280;14312;52.614;13.496;2023-03-15T14:39:44;100906.69;;;15.05;51.05
26697;BME280;14312;52.614;13.496;2023-03-15T14:42:29;100911.56;;;15.18;52.94
26697;BME280;14312;52.614;13.496;2023-03-15T14:45:17;100911.06;;;15.26;51.65
26697;BME280;14312;52.614;13.496;2023-03-15T14:48:06;100887.41;;;15.23;50.81
26697;BME280;14312;52.614;13.496;2023-03-15T14:50:53;100893.31;;;15.20;50.82
26697;BME280;14312;52.614;13.496;2023-03-15T14:53:40;100900.78;;;15.13;50.23
26697;BME280;14312;52.614;13.496;2023-03-15T14:56:26;100896.41;;;14.92;49.98
26697;BME280;14312;52.614;13.496;2023-03-15T14:59:12;100901.41;;;14.68;49.03
26697;BME280;14312;52.614;13.496;2023-03-15T15:01:58;100902.59;;;14.40;50.04
26697;BME280;14312;52.614;13.496;2023-03-15T15:04:45;100896.69;;;14.38;51.32
26697;BME280;14312;52.614;13.496;2023-03-15T15:07:33;100890.84;;;14.52;50.42
26697;BME280;14312;52.614;13.496;2023-03-15T15:10:23;100899.47;;;14.59;47.51
26697;BME280;14312;52.614;13.496;2023-03-15T15:13:15;100915.56;;;14.54;48.28
26697;BME280;14312;52.614;13.496;2023-03-15T15:16:02;100918.94;;;14.39;47.39
26697;BME280;14312;52.614;13.496;2023-03-15T15:18:49;100905.63;;;14.17;47.90
26697;BME280;14312;52.614;13.496;2023-03-15T15:21:35;100913.28;;;14.03;48.71
26697;BME280;14312;52.614;13.496;2023-03-15T15:24:24;100907.63;;;14.00;47.79
26697;BME280;14312;52.614;13.496;2023-03-15T15:27:11;100917.19;;;13.91;47.35
26697;BME280;14312;52.614;13.496;2023-03-15T15:29:58;100915.41;;;13.69;47.73
26697;BME280;14312;52.614;13.496;2023-03-15T15:32:44;100911.84;;;13.37;47.61
26697;BME280;14312;52.614;13.496;2023-03-15T15:35:30;100922.66;;;13.04;47.40
26697;BME280;14312;52.614;13.496;2023-03-15T15:38:17;100925.44;;;12.70;48.10
26697;BME280;14312;52.614;13.496;2023-03-15T15:41:03;100921.22;;;12.36;48.66
26697;BME280;14312;52.614;13.496;2023-03-15T15:43:49;100924.44;;;12.04;48.64
26697;BME280;14312;52.614;13.496;2023-03-15T15:46:35;100924.72;;;11.74;49.64